This is the latest recevied weather packets stored in our database for station/object K4KMJ. If no packets are shown the sender has not sent any weather packets the latest 10 day(s).
| Time | Temp. | Humidity | Pressure | Rain* | Wind** | Luminosity | Snow |
|---|---|---|---|---|---|---|---|
| 1777496742 | 32.22° C | 49% | 1013.6 hPa | 0 mm | - | 369 W/m² | - |
| 1777496438 | 32.78° C | 47% | 1013.7 hPa | 0 mm | - | 397 W/m² | - |
| 1777496136 | 32.78° C | 48% | 1013.9 hPa | 0 mm | - | 368 W/m² | - |
| 1777495831 | 31.67° C | 49% | 1014 hPa | 0 mm | - | 355 W/m² | - |
| 1777495527 | 31.67° C | 50% | 1013.8 hPa | 0 mm | - | 337 W/m² | - |
| 1777495224 | 32.22° C | 50% | 1013.9 hPa | 0 mm | - | 404 W/m² | - |
| 1777494921 | 31.67° C | 50% | 1014 hPa | 0 mm | - | 363 W/m² | - |
| 1777494618 | 31.67° C | 50% | 1014.2 hPa | 0 mm | - | 117 W/m² | - |
| 1777494315 | 32.78° C | 50% | 1014.1 hPa | 0 mm | - | 437 W/m² | - |
| 1777494011 | 30.56° C | 53% | 1014.3 hPa | 0 mm | - | 145 W/m² | - |
| 1777493710 | 31.11° C | 52% | 1014.3 hPa | 0 mm | - | 505 W/m² | - |
| 1777493408 | 32.22° C | 50% | 1014.6 hPa | 0 mm | - | 522 W/m² | - |
| 1777493103 | 32.22° C | 50% | 1014.8 hPa | 0 mm | - | 145 W/m² | - |
| 1777492800 | 31.67° C | 51% | 1014.9 hPa | 0 mm | - | 531 W/m² | - |
| 1777492496 | 32.22° C | 50% | 1015.1 hPa | 0 mm | - | 160 W/m² | - |
| 1777492192 | 32.22° C | 51% | 1015 hPa | 0 mm | - | 526 W/m² | - |
| 1777491889 | 31.11° C | 51% | 1015 hPa | 0 mm | - | 511 W/m² | - |
| 1777491586 | 32.22° C | 49% | 1015.3 hPa | 0 mm | - | 339 W/m² | - |
| 1777491284 | 33.33° C | 50% | 1015.3 hPa | 0 mm | - | 539 W/m² | - |
| 1777490980 | 31.67° C | 50% | 1015.4 hPa | 0 mm | - | 535 W/m² | - |
| 1777490676 | 31.67° C | 51% | 1015.6 hPa | 0 mm | - | 546 W/m² | - |
| 1777490372 | 32.22° C | 50% | 1015.9 hPa | 0 mm | - | 242 W/m² | - |
| 1777490070 | 32.22° C | 52% | 1015.8 hPa | 0 mm | - | 551 W/m² | - |
| 1777489767 | 31.67° C | 54% | 1016.2 hPa | 0 mm | - | 567 W/m² | - |
| 1777489464 | 31.11° C | 56% | 1016.1 hPa | 0 mm | - | 432 W/m² | - |
* Rain latest hour (hover to see other rain measurements)
** Current wind speed in m/s (hover to see current wind gust speed)